sensor_id;sensor_type;location;lat;lon;timestamp;P1;durP1;ratioP1;P2;durP2;ratioP2
45322;SDS011;31382;50.200;8.674;2023-03-07T00:01:57;25.25;;;10.65;;
45322;SDS011;31382;50.200;8.674;2023-03-07T00:06:58;23.38;;;10.30;;
45322;SDS011;31382;50.200;8.674;2023-03-07T00:12:00;23.08;;;11.05;;
45322;SDS011;31382;50.200;8.674;2023-03-07T00:17:01;21.33;;;10.18;;
45322;SDS011;31382;50.200;8.674;2023-03-07T00:22:03;22.60;;;10.70;;
45322;SDS011;31382;50.200;8.674;2023-03-07T00:27:04;22.80;;;10.52;;
45322;SDS011;31382;50.200;8.674;2023-03-07T00:32:06;28.50;;;12.73;;
45322;SDS011;31382;50.200;8.674;2023-03-07T00:37:07;33.30;;;12.68;;
45322;SDS011;31382;50.200;8.674;2023-03-07T00:42:09;34.95;;;14.13;;
45322;SDS011;31382;50.200;8.674;2023-03-07T00:47:10;33.15;;;13.82;;
45322;SDS011;31382;50.200;8.674;2023-03-07T00:52:12;32.08;;;13.88;;
45322;SDS011;31382;50.200;8.674;2023-03-07T00:57:13;33.85;;;14.48;;
45322;SDS011;31382;50.200;8.674;2023-03-07T01:02:15;34.75;;;15.20;;
45322;SDS011;31382;50.200;8.674;2023-03-07T01:07:16;34.78;;;15.05;;
45322;SDS011;31382;50.200;8.674;2023-03-07T01:12:17;37.22;;;14.73;;
45322;SDS011;31382;50.200;8.674;2023-03-07T01:17:19;37.63;;;15.35;;
45322;SDS011;31382;50.200;8.674;2023-03-07T01:22:20;38.45;;;15.32;;
45322;SDS011;31382;50.200;8.674;2023-03-07T01:27:21;37.45;;;15.40;;
45322;SDS011;31382;50.200;8.674;2023-03-07T01:32:23;43.38;;;17.77;;
45322;SDS011;31382;50.200;8.674;2023-03-07T01:37:25;44.42;;;17.70;;
45322;SDS011;31382;50.200;8.674;2023-03-07T01:42:28;43.28;;;18.10;;
45322;SDS011;31382;50.200;8.674;2023-03-07T01:47:31;47.55;;;17.25;;
45322;SDS011;31382;50.200;8.674;2023-03-07T01:52:37;41.97;;;16.98;;
45322;SDS011;31382;50.200;8.674;2023-03-07T01:57:42;39.75;;;17.13;;
45322;SDS011;31382;50.200;8.674;2023-03-07T02:02:46;42.55;;;17.88;;
45322;SDS011;31382;50.200;8.674;2023-03-07T02:12:57;39.15;;;16.75;;
45322;SDS011;31382;50.200;8.674;2023-03-07T02:17:58;40.80;;;16.20;;
45322;SDS011;31382;50.200;8.674;2023-03-07T02:23:00;44.75;;;18.48;;
45322;SDS011;31382;50.200;8.674;2023-03-07T02:28:02;44.13;;;18.30;;
45322;SDS011;31382;50.200;8.674;2023-03-07T02:33:04;40.42;;;17.85;;
45322;SDS011;31382;50.200;8.674;2023-03-07T02:38:05;40.65;;;17.40;;
45322;SDS011;31382;50.200;8.674;2023-03-07T02:43:07;40.63;;;17.90;;
45322;SDS011;31382;50.200;8.674;2023-03-07T02:48:09;39.22;;;16.73;;
45322;SDS011;31382;50.200;8.674;2023-03-07T02:53:11;42.00;;;17.60;;
45322;SDS011;31382;50.200;8.674;2023-03-07T02:58:12;38.60;;;17.27;;
45322;SDS011;31382;50.200;8.674;2023-03-07T03:03:13;40.97;;;17.60;;
45322;SDS011;31382;50.200;8.674;2023-03-07T03:08:15;37.95;;;15.73;;
45322;SDS011;31382;50.200;8.674;2023-03-07T03:13:16;37.47;;;16.05;;
45322;SDS011;31382;50.200;8.674;2023-03-07T03:18:18;46.63;;;17.77;;
45322;SDS011;31382;50.200;8.674;2023-03-07T03:23:19;39.70;;;18.02;;
45322;SDS011;31382;50.200;8.674;2023-03-07T03:28:21;36.10;;;15.95;;
45322;SDS011;31382;50.200;8.674;2023-03-07T03:33:22;34.50;;;13.95;;
45322;SDS011;31382;50.200;8.674;2023-03-07T03:38:24;30.23;;;14.07;;
45322;SDS011;31382;50.200;8.674;2023-03-07T03:43:26;33.15;;;13.95;;
45322;SDS011;31382;50.200;8.674;2023-03-07T03:48:28;28.63;;;13.07;;
45322;SDS011;31382;50.200;8.674;2023-03-07T03:53:30;30.00;;;13.45;;
45322;SDS011;31382;50.200;8.674;2023-03-07T03:58:33;21.27;;;10.45;;
45322;SDS011;31382;50.200;8.674;2023-03-07T04:03:40;25.45;;;10.88;;
45322;SDS011;31382;50.200;8.674;2023-03-07T04:08:43;25.85;;;11.50;;
45322;SDS011;31382;50.200;8.674;2023-03-07T04:13:46;24.30;;;10.90;;
45322;SDS011;31382;50.200;8.674;2023-03-07T04:18:47;24.27;;;11.63;;
45322;SDS011;31382;50.200;8.674;2023-03-07T04:23:51;19.15;;;10.50;;
45322;SDS011;31382;50.200;8.674;2023-03-07T04:28:55;22.63;;;10.75;;
45322;SDS011;31382;50.200;8.674;2023-03-07T04:33:57;24.75;;;11.20;;
45322;SDS011;31382;50.200;8.674;2023-03-07T04:38:58;22.75;;;10.32;;
45322;SDS011;31382;50.200;8.674;2023-03-07T04:44:00;20.90;;;9.25;;
45322;SDS011;31382;50.200;8.674;2023-03-07T04:49:01;20.83;;;10.07;;
45322;SDS011;31382;50.200;8.674;2023-03-07T04:54:02;24.70;;;11.30;;
45322;SDS011;31382;50.200;8.674;2023-03-07T04:59:04;22.02;;;10.57;;
45322;SDS011;31382;50.200;8.674;2023-03-07T05:04:05;20.63;;;9.90;;
45322;SDS011;31382;50.200;8.674;2023-03-07T05:09:07;24.38;;;11.55;;
45322;SDS011;31382;50.200;8.674;2023-03-07T05:14:08;23.27;;;10.75;;
45322;SDS011;31382;50.200;8.674;2023-03-07T05:19:09;24.63;;;10.38;;
45322;SDS011;31382;50.200;8.674;2023-03-07T05:24:11;22.38;;;11.75;;
45322;SDS011;31382;50.200;8.674;2023-03-07T05:29:12;24.30;;;11.70;;
45322;SDS011;31382;50.200;8.674;2023-03-07T05:34:13;27.55;;;12.40;;
45322;SDS011;31382;50.200;8.674;2023-03-07T05:39:16;26.42;;;12.63;;
45322;SDS011;31382;50.200;8.674;2023-03-07T05:44:18;27.20;;;12.57;;
45322;SDS011;31382;50.200;8.674;2023-03-07T05:49:19;26.10;;;13.00;;
45322;SDS011;31382;50.200;8.674;2023-03-07T05:54:21;26.58;;;13.48;;
45322;SDS011;31382;50.200;8.674;2023-03-07T05:59:22;23.85;;;12.15;;
45322;SDS011;31382;50.200;8.674;2023-03-07T06:04:24;26.85;;;12.82;;
45322;SDS011;31382;50.200;8.674;2023-03-07T06:09:25;25.02;;;11.50;;
45322;SDS011;31382;50.200;8.674;2023-03-07T06:14:29;28.60;;;13.85;;
45322;SDS011;31382;50.200;8.674;2023-03-07T06:19:31;24.30;;;12.45;;
45322;SDS011;31382;50.200;8.674;2023-03-07T06:24:33;29.02;;;11.52;;
45322;SDS011;31382;50.200;8.674;2023-03-07T06:29:35;27.95;;;12.55;;
45322;SDS011;31382;50.200;8.674;2023-03-07T06:34:37;22.50;;;12.70;;
45322;SDS011;31382;50.200;8.674;2023-03-07T06:39:38;20.80;;;11.20;;
45322;SDS011;31382;50.200;8.674;2023-03-07T06:44:40;26.95;;;11.98;;
45322;SDS011;31382;50.200;8.674;2023-03-07T06:49:44;21.30;;;11.27;;
45322;SDS011;31382;50.200;8.674;2023-03-07T06:54:45;22.70;;;11.45;;
45322;SDS011;31382;50.200;8.674;2023-03-07T06:59:46;23.95;;;11.48;;
45322;SDS011;31382;50.200;8.674;2023-03-07T07:04:48;21.85;;;11.13;;
45322;SDS011;31382;50.200;8.674;2023-03-07T07:09:49;23.13;;;11.57;;
45322;SDS011;31382;50.200;8.674;2023-03-07T07:14:51;20.83;;;10.10;;
45322;SDS011;31382;50.200;8.674;2023-03-07T07:19:52;26.33;;;11.40;;
45322;SDS011;31382;50.200;8.674;2023-03-07T07:24:54;20.70;;;10.60;;
45322;SDS011;31382;50.200;8.674;2023-03-07T07:29:55;23.75;;;11.07;;
45322;SDS011;31382;50.200;8.674;2023-03-07T07:34:57;22.75;;;11.35;;
45322;SDS011;31382;50.200;8.674;2023-03-07T07:39:58;23.30;;;10.50;;
45322;SDS011;31382;50.200;8.674;2023-03-07T07:44:59;22.45;;;10.13;;
45322;SDS011;31382;50.200;8.674;2023-03-07T07:50:01;21.00;;;9.63;;
45322;SDS011;31382;50.200;8.674;2023-03-07T07:55:03;20.80;;;10.40;;
45322;SDS011;31382;50.200;8.674;2023-03-07T08:00:04;21.67;;;9.52;;
45322;SDS011;31382;50.200;8.674;2023-03-07T08:05:07;18.85;;;9.75;;
45322;SDS011;31382;50.200;8.674;2023-03-07T08:10:13;21.35;;;11.13;;
45322;SDS011;31382;50.200;8.674;2023-03-07T08:15:16;20.25;;;9.20;;
45322;SDS011;31382;50.200;8.674;2023-03-07T08:20:19;21.25;;;9.98;;
45322;SDS011;31382;50.200;8.674;2023-03-07T08:25:23;18.33;;;10.32;;
45322;SDS011;31382;50.200;8.674;2023-03-07T08:30:27;17.92;;;9.98;;
45322;SDS011;31382;50.200;8.674;2023-03-07T08:35:30;18.98;;;9.60;;
45322;SDS011;31382;50.200;8.674;2023-03-07T08:40:32;23.90;;;10.60;;
45322;SDS011;31382;50.200;8.674;2023-03-07T08:45:33;18.80;;;9.38;;
45322;SDS011;31382;50.200;8.674;2023-03-07T08:50:35;20.65;;;9.10;;
45322;SDS011;31382;50.200;8.674;2023-03-07T08:55:38;17.58;;;8.93;;
45322;SDS011;31382;50.200;8.674;2023-03-07T09:00:40;16.55;;;8.77;;
45322;SDS011;31382;50.200;8.674;2023-03-07T09:05:41;16.02;;;8.48;;
45322;SDS011;31382;50.200;8.674;2023-03-07T09:10:43;16.17;;;7.85;;
45322;SDS011;31382;50.200;8.674;2023-03-07T09:15:44;15.45;;;7.82;;
45322;SDS011;31382;50.200;8.674;2023-03-07T09:20:46;17.33;;;8.25;;
45322;SDS011;31382;50.200;8.674;2023-03-07T09:25:47;17.00;;;7.95;;
45322;SDS011;31382;50.200;8.674;2023-03-07T09:30:48;17.83;;;7.13;;
45322;SDS011;31382;50.200;8.674;2023-03-07T09:35:50;13.60;;;7.60;;
45322;SDS011;31382;50.200;8.674;2023-03-07T09:40:51;17.05;;;7.57;;
45322;SDS011;31382;50.200;8.674;2023-03-07T09:45:59;12.63;;;6.30;;
45322;SDS011;31382;50.200;8.674;2023-03-07T09:56:51;11.35;;;6.60;;
45322;SDS011;31382;50.200;8.674;2023-03-07T10:02:17;11.60;;;5.18;;
45322;SDS011;31382;50.200;8.674;2023-03-07T10:07:17;11.98;;;5.82;;
45322;SDS011;31382;50.200;8.674;2023-03-07T10:12:45;9.68;;;5.47;;
45322;SDS011;31382;50.200;8.674;2023-03-07T10:18:10;10.27;;;5.78;;
45322;SDS011;31382;50.200;8.674;2023-03-07T10:23:21;12.20;;;5.40;;
45322;SDS011;31382;50.200;8.674;2023-03-07T10:28:32;11.82;;;5.85;;
45322;SDS011;31382;50.200;8.674;2023-03-07T10:33:37;9.80;;;5.85;;
45322;SDS011;31382;50.200;8.674;2023-03-07T10:39:00;10.77;;;6.07;;
45322;SDS011;31382;50.200;8.674;2023-03-07T10:44:09;10.77;;;5.05;;
45322;SDS011;31382;50.200;8.674;2023-03-07T10:49:18;11.88;;;5.65;;
45322;SDS011;31382;50.200;8.674;2023-03-07T10:54:35;11.00;;;5.53;;
45322;SDS011;31382;50.200;8.674;2023-03-07T10:59:39;10.90;;;5.05;;
45322;SDS011;31382;50.200;8.674;2023-03-07T11:04:45;7.80;;;4.40;;
45322;SDS011;31382;50.200;8.674;2023-03-07T11:09:47;7.07;;;3.72;;
45322;SDS011;31382;50.200;8.674;2023-03-07T11:19:56;10.35;;;4.18;;
45322;SDS011;31382;50.200;8.674;2023-03-07T11:25:03;10.18;;;4.57;;
45322;SDS011;31382;50.200;8.674;2023-03-07T11:30:15;8.50;;;4.38;;
45322;SDS011;31382;50.200;8.674;2023-03-07T11:36:05;16.25;;;5.68;;
45322;SDS011;31382;50.200;8.674;2023-03-07T11:40:58;9.70;;;4.53;;
45322;SDS011;31382;50.200;8.674;2023-03-07T11:46:17;7.93;;;4.45;;
45322;SDS011;31382;50.200;8.674;2023-03-07T11:51:35;7.73;;;3.87;;
45322;SDS011;31382;50.200;8.674;2023-03-07T11:56:54;9.43;;;3.90;;
45322;SDS011;31382;50.200;8.674;2023-03-07T12:02:23;7.60;;;3.42;;
45322;SDS011;31382;50.200;8.674;2023-03-07T12:18:48;5.82;;;3.58;;
45322;SDS011;31382;50.200;8.674;2023-03-07T12:23:58;6.03;;;3.60;;
45322;SDS011;31382;50.200;8.674;2023-03-07T12:29:12;8.52;;;4.72;;
45322;SDS011;31382;50.200;8.674;2023-03-07T12:34:39;7.28;;;4.63;;
45322;SDS011;31382;50.200;8.674;2023-03-07T12:40:02;6.53;;;4.13;;
45322;SDS011;31382;50.200;8.674;2023-03-07T12:45:20;6.90;;;3.60;;
45322;SDS011;31382;50.200;8.674;2023-03-07T12:55:45;7.10;;;3.80;;
45322;SDS011;31382;50.200;8.674;2023-03-07T13:00:55;12.07;;;4.28;;
45322;SDS011;31382;50.200;8.674;2023-03-07T13:05:59;6.63;;;3.40;;
45322;SDS011;31382;50.200;8.674;2023-03-07T13:11:01;8.68;;;3.17;;
45322;SDS011;31382;50.200;8.674;2023-03-07T13:16:04;5.80;;;2.97;;
45322;SDS011;31382;50.200;8.674;2023-03-07T13:21:06;9.73;;;3.60;;
45322;SDS011;31382;50.200;8.674;2023-03-07T13:26:09;6.00;;;3.22;;
45322;SDS011;31382;50.200;8.674;2023-03-07T13:31:21;7.22;;;3.60;;
45322;SDS011;31382;50.200;8.674;2023-03-07T13:36:30;7.25;;;3.45;;
45322;SDS011;31382;50.200;8.674;2023-03-07T13:41:42;5.95;;;3.60;;
45322;SDS011;31382;50.200;8.674;2023-03-07T13:46:46;9.27;;;4.05;;
45322;SDS011;31382;50.200;8.674;2023-03-07T13:57:36;6.70;;;3.75;;
45322;SDS011;31382;50.200;8.674;2023-03-07T14:02:39;6.05;;;2.88;;
45322;SDS011;31382;50.200;8.674;2023-03-07T14:07:44;10.43;;;3.85;;
45322;SDS011;31382;50.200;8.674;2023-03-07T14:18:18;7.35;;;3.70;;
45322;SDS011;31382;50.200;8.674;2023-03-07T14:23:47;6.28;;;3.75;;
45322;SDS011;31382;50.200;8.674;2023-03-07T14:29:23;6.68;;;2.83;;
45322;SDS011;31382;50.200;8.674;2023-03-07T14:34:27;6.55;;;3.05;;
45322;SDS011;31382;50.200;8.674;2023-03-07T14:50:19;7.53;;;4.00;;
45322;SDS011;31382;50.200;8.674;2023-03-07T14:55:24;9.93;;;3.92;;
45322;SDS011;31382;50.200;8.674;2023-03-07T15:00:35;8.27;;;4.90;;
45322;SDS011;31382;50.200;8.674;2023-03-07T15:05:45;8.85;;;4.28;;
45322;SDS011;31382;50.200;8.674;2023-03-07T15:10:49;13.40;;;5.25;;
45322;SDS011;31382;50.200;8.674;2023-03-07T15:15:59;8.05;;;4.40;;
45322;SDS011;31382;50.200;8.674;2023-03-07T15:21:03;7.00;;;3.88;;
45322;SDS011;31382;50.200;8.674;2023-03-07T15:26:07;9.70;;;3.70;;
45322;SDS011;31382;50.200;8.674;2023-03-07T15:31:21;8.35;;;3.63;;
45322;SDS011;31382;50.200;8.674;2023-03-07T15:36:24;5.32;;;2.83;;
45322;SDS011;31382;50.200;8.674;2023-03-07T15:41:33;6.82;;;3.17;;
45322;SDS011;31382;50.200;8.674;2023-03-07T15:46:45;6.82;;;3.13;;
45322;SDS011;31382;50.200;8.674;2023-03-07T15:51:49;5.40;;;3.22;;
45322;SDS011;31382;50.200;8.674;2023-03-07T15:56:55;4.93;;;2.53;;
45322;SDS011;31382;50.200;8.674;2023-03-07T16:07:35;5.53;;;2.45;;
45322;SDS011;31382;50.200;8.674;2023-03-07T16:12:37;5.75;;;2.63;;
45322;SDS011;31382;50.200;8.674;2023-03-07T16:17:46;5.80;;;2.53;;
45322;SDS011;31382;50.200;8.674;2023-03-07T16:22:55;7.55;;;2.92;;
45322;SDS011;31382;50.200;8.674;2023-03-07T16:27:57;8.73;;;3.40;;
45322;SDS011;31382;50.200;8.674;2023-03-07T16:32:59;6.18;;;4.05;;
45322;SDS011;31382;50.200;8.674;2023-03-07T16:38:00;6.50;;;3.30;;
45322;SDS011;31382;50.200;8.674;2023-03-07T16:43:01;6.88;;;3.78;;
45322;SDS011;31382;50.200;8.674;2023-03-07T16:48:03;5.32;;;3.40;;
45322;SDS011;31382;50.200;8.674;2023-03-07T16:53:05;9.57;;;4.13;;
45322;SDS011;31382;50.200;8.674;2023-03-07T16:58:06;10.27;;;3.67;;
45322;SDS011;31382;50.200;8.674;2023-03-07T17:03:19;9.90;;;4.50;;
45322;SDS011;31382;50.200;8.674;2023-03-07T17:08:21;10.30;;;4.07;;
45322;SDS011;31382;50.200;8.674;2023-03-07T17:13:23;10.10;;;4.95;;
45322;SDS011;31382;50.200;8.674;2023-03-07T17:18:24;11.75;;;5.45;;
45322;SDS011;31382;50.200;8.674;2023-03-07T17:23:26;9.50;;;5.78;;
45322;SDS011;31382;50.200;8.674;2023-03-07T17:28:28;13.77;;;6.13;;
45322;SDS011;31382;50.200;8.674;2023-03-07T17:33:29;13.55;;;6.55;;
45322;SDS011;31382;50.200;8.674;2023-03-07T17:38:31;16.17;;;7.50;;
45322;SDS011;31382;50.200;8.674;2023-03-07T17:43:32;9.30;;;4.82;;
45322;SDS011;31382;50.200;8.674;2023-03-07T17:48:34;12.10;;;5.75;;
45322;SDS011;31382;50.200;8.674;2023-03-07T17:53:36;13.10;;;6.13;;
45322;SDS011;31382;50.200;8.674;2023-03-07T17:58:38;11.73;;;6.28;;
45322;SDS011;31382;50.200;8.674;2023-03-07T18:03:42;9.48;;;6.03;;
45322;SDS011;31382;50.200;8.674;2023-03-07T18:08:48;9.80;;;5.82;;
45322;SDS011;31382;50.200;8.674;2023-03-07T18:13:50;11.60;;;6.45;;
45322;SDS011;31382;50.200;8.674;2023-03-07T18:18:52;11.48;;;5.57;;
45322;SDS011;31382;50.200;8.674;2023-03-07T18:24:01;12.13;;;5.43;;
45322;SDS011;31382;50.200;8.674;2023-03-07T18:29:03;9.52;;;5.22;;
45322;SDS011;31382;50.200;8.674;2023-03-07T18:34:04;10.70;;;5.43;;
45322;SDS011;31382;50.200;8.674;2023-03-07T18:39:06;8.95;;;4.63;;
45322;SDS011;31382;50.200;8.674;2023-03-07T18:44:11;12.73;;;6.35;;
45322;SDS011;31382;50.200;8.674;2023-03-07T18:49:14;9.60;;;4.93;;
45322;SDS011;31382;50.200;8.674;2023-03-07T18:54:16;14.25;;;5.50;;
45322;SDS011;31382;50.200;8.674;2023-03-07T18:59:18;11.40;;;6.28;;
45322;SDS011;31382;50.200;8.674;2023-03-07T19:04:19;9.07;;;5.65;;
45322;SDS011;31382;50.200;8.674;2023-03-07T19:09:21;14.75;;;4.75;;
45322;SDS011;31382;50.200;8.674;2023-03-07T19:14:23;13.35;;;6.32;;
45322;SDS011;31382;50.200;8.674;2023-03-07T19:19:26;13.07;;;6.18;;
45322;SDS011;31382;50.200;8.674;2023-03-07T19:24:28;10.18;;;5.68;;
45322;SDS011;31382;50.200;8.674;2023-03-07T19:29:29;13.13;;;6.22;;
45322;SDS011;31382;50.200;8.674;2023-03-07T19:34:31;11.43;;;5.25;;
45322;SDS011;31382;50.200;8.674;2023-03-07T19:39:32;9.70;;;5.50;;
45322;SDS011;31382;50.200;8.674;2023-03-07T19:44:34;11.55;;;5.53;;
45322;SDS011;31382;50.200;8.674;2023-03-07T19:49:36;16.33;;;7.20;;
45322;SDS011;31382;50.200;8.674;2023-03-07T19:54:37;13.75;;;7.00;;
45322;SDS011;31382;50.200;8.674;2023-03-07T19:59:40;7.95;;;4.72;;
45322;SDS011;31382;50.200;8.674;2023-03-07T20:04:42;4.18;;;3.38;;
45322;SDS011;31382;50.200;8.674;2023-03-07T20:09:43;4.35;;;2.78;;
45322;SDS011;31382;50.200;8.674;2023-03-07T20:14:45;4.22;;;3.05;;
45322;SDS011;31382;50.200;8.674;2023-03-07T20:19:48;6.15;;;3.22;;
45322;SDS011;31382;50.200;8.674;2023-03-07T20:24:50;5.20;;;3.50;;
45322;SDS011;31382;50.200;8.674;2023-03-07T20:29:52;5.88;;;3.95;;
45322;SDS011;31382;50.200;8.674;2023-03-07T20:34:54;9.35;;;4.13;;
45322;SDS011;31382;50.200;8.674;2023-03-07T20:39:58;4.90;;;2.95;;
45322;SDS011;31382;50.200;8.674;2023-03-07T20:45:03;4.10;;;2.50;;
45322;SDS011;31382;50.200;8.674;2023-03-07T20:50:05;5.57;;;2.95;;
45322;SDS011;31382;50.200;8.674;2023-03-07T20:55:07;6.75;;;2.83;;
45322;SDS011;31382;50.200;8.674;2023-03-07T21:00:09;5.20;;;2.72;;
45322;SDS011;31382;50.200;8.674;2023-03-07T21:05:11;6.68;;;3.35;;
45322;SDS011;31382;50.200;8.674;2023-03-07T21:10:13;5.60;;;3.33;;
45322;SDS011;31382;50.200;8.674;2023-03-07T21:15:14;5.93;;;2.70;;
45322;SDS011;31382;50.200;8.674;2023-03-07T21:20:16;5.68;;;1.80;;
45322;SDS011;31382;50.200;8.674;2023-03-07T21:25:17;1.77;;;1.00;;
45322;SDS011;31382;50.200;8.674;2023-03-07T21:30:19;0.90;;;0.55;;
45322;SDS011;31382;50.200;8.674;2023-03-07T21:35:20;1.00;;;0.40;;
45322;SDS011;31382;50.200;8.674;2023-03-07T21:40:21;0.93;;;0.50;;
45322;SDS011;31382;50.200;8.674;2023-03-07T21:45:23;0.77;;;0.40;;
45322;SDS011;31382;50.200;8.674;2023-03-07T21:50:25;1.30;;;0.80;;
45322;SDS011;31382;50.200;8.674;2023-03-07T21:55:27;4.50;;;1.80;;
45322;SDS011;31382;50.200;8.674;2023-03-07T22:00:29;1.08;;;0.52;;
45322;SDS011;31382;50.200;8.674;2023-03-07T22:05:31;1.13;;;0.47;;
45322;SDS011;31382;50.200;8.674;2023-03-07T22:10:32;1.92;;;0.80;;
45322;SDS011;31382;50.200;8.674;2023-03-07T22:15:33;1.48;;;0.68;;
45322;SDS011;31382;50.200;8.674;2023-03-07T22:20:36;1.90;;;1.00;;
45322;SDS011;31382;50.200;8.674;2023-03-07T22:25:38;1.58;;;0.90;;
45322;SDS011;31382;50.200;8.674;2023-03-07T22:30:39;2.30;;;0.90;;
45322;SDS011;31382;50.200;8.674;2023-03-07T22:35:41;1.52;;;0.70;;
45322;SDS011;31382;50.200;8.674;2023-03-07T22:40:42;1.20;;;0.65;;
45322;SDS011;31382;50.200;8.674;2023-03-07T22:45:47;3.25;;;0.82;;
45322;SDS011;31382;50.200;8.674;2023-03-07T22:50:50;1.23;;;0.70;;
45322;SDS011;31382;50.200;8.674;2023-03-07T22:55:52;1.67;;;0.70;;
45322;SDS011;31382;50.200;8.674;2023-03-07T23:00:53;1.45;;;0.60;;
45322;SDS011;31382;50.200;8.674;2023-03-07T23:05:58;1.23;;;0.82;;
45322;SDS011;31382;50.200;8.674;2023-03-07T23:11:00;1.98;;;0.75;;
45322;SDS011;31382;50.200;8.674;2023-03-07T23:16:10;2.83;;;1.70;;
45322;SDS011;31382;50.200;8.674;2023-03-07T23:21:20;2.28;;;1.00;;
45322;SDS011;31382;50.200;8.674;2023-03-07T23:26:24;5.53;;;1.50;;
45322;SDS011;31382;50.200;8.674;2023-03-07T23:31:29;2.35;;;0.90;;
45322;SDS011;31382;50.200;8.674;2023-03-07T23:36:33;1.90;;;0.70;;
45322;SDS011;31382;50.200;8.674;2023-03-07T23:41:34;1.83;;;0.65;;
45322;SDS011;31382;50.200;8.674;2023-03-07T23:46:36;2.83;;;0.98;;
45322;SDS011;31382;50.200;8.674;2023-03-07T23:51:38;1.80;;;0.88;;
45322;SDS011;31382;50.200;8.674;2023-03-07T23:56:39;3.10;;;0.88;;
